Time;durP1;ratioP1;P1;durP2;ratioP2;P2;SDS_P1;SDS_P2;PMS_P1;PMS_P2;Temp;Humidity;BMP_temperature;BMP_pressure;BME280_temperature;BME280_humidity;BME280_pressure;Samples;Min_cycle;Max_cycle;Signal;HPM_P1;HPM_P2
2021/07/16 00:01:53;;;;;;;4.22;3.30;;;;;;;22.99;67.75;99354.72;1734410;82;21057;-54
2021/07/16 00:04:19;;;;;;;4.80;3.35;;;;;;;22.98;67.72;99359.86;1733399;82;21129;-54
2021/07/16 00:06:47;;;;;;;9.58;5.55;;;;;;;22.97;67.70;99354.02;1734169;82;21038;-54
2021/07/16 00:09:14;;;;;;;14.78;5.75;;;;;;;22.97;67.91;99359.50;1736861;82;20957;-55
2021/07/16 00:11:42;;;;;;;14.85;5.17;;;;;;;22.97;68.27;99351.78;1735103;82;21097;-53
2021/07/16 00:14:08;;;;;;;8.60;4.70;;;;;;;22.97;68.28;99350.41;1735206;82;21072;-54
2021/07/16 00:16:34;;;;;;;14.05;5.20;;;;;;;22.98;68.16;99350.25;1736787;82;21109;-54
2021/07/16 00:19:00;;;;;;;12.37;6.33;;;;;;;22.98;68.09;99353.50;1732388;82;21367;-53
2021/07/16 00:21:27;;;;;;;11.15;5.60;;;;;;;22.97;68.04;99343.55;1737210;82;21501;-55
2021/07/16 00:23:53;;;;;;;7.17;5.30;;;;;;;22.97;68.08;99344.92;1729588;82;21135;-54
2021/07/16 00:26:20;;;;;;;9.18;4.28;;;;;;;22.97;68.07;99354.53;1732793;82;21046;-55
2021/07/16 00:28:46;;;;;;;9.28;3.98;;;;;;;22.97;68.17;99349.04;1735782;82;21121;-52
2021/07/16 00:31:13;;;;;;;5.15;4.05;;;;;;;22.96;68.05;99341.34;1736856;82;21633;-54
2021/07/16 00:33:39;;;;;;;14.33;5.97;;;;;;;22.95;68.18;99338.25;1733503;82;21141;-54
2021/07/16 00:36:07;;;;;;;8.20;4.42;;;;;;;22.95;68.36;99343.73;1735082;82;21556;-54
2021/07/16 00:38:33;;;;;;;12.25;5.22;;;;;;;22.94;68.48;99342.52;1733454;82;21124;-53
2021/07/16 00:40:59;;;;;;;17.25;6.25;;;;;;;22.91;68.46;99345.58;1721911;82;21492;-54
2021/07/16 00:43:27;;;;;;;16.52;5.40;;;;;;;22.90;68.51;99343.86;1722575;82;21151;-53
2021/07/16 00:45:55;;;;;;;14.35;4.97;;;;;;;22.88;68.50;99347.30;1723817;82;22168;-53
2021/07/16 00:48:21;;;;;;;6.72;3.70;;;;;;;22.87;68.60;99344.20;1720221;82;22124;-53
2021/07/16 00:50:52;;;;;;;13.22;5.05;;;;;;;22.85;68.75;99344.86;1720401;82;21638;-52
2021/07/16 00:53:18;;;;;;;8.45;5.08;;;;;;;22.85;68.65;99353.09;1724282;82;22210;-53
2021/07/16 00:55:46;;;;;;;11.22;5.35;;;;;;;22.84;68.56;99349.48;1727043;81;21346;-54
2021/07/16 00:58:15;;;;;;;9.15;5.83;;;;;;;22.85;68.52;99350.35;1724159;82;20907;-53
2021/07/16 01:00:41;;;;;;;14.63;6.20;;;;;;;22.84;68.54;99346.75;1725589;82;21022;-53
2021/07/16 01:03:08;;;;;;;12.88;5.30;;;;;;;22.83;68.41;99349.64;1724869;82;20880;-55
2021/07/16 01:05:35;;;;;;;14.28;6.55;;;;;;;22.82;68.39;99345.17;1700683;82;20908;-54
2021/07/16 01:08:02;;;;;;;9.43;5.12;;;;;;;22.80;68.37;99341.72;1727021;82;20923;-55
2021/07/16 01:10:30;;;;;;;5.42;3.92;;;;;;;22.77;68.38;99340.70;1727778;82;21703;-56
2021/07/16 01:12:57;;;;;;;4.42;3.25;;;;;;;22.75;68.42;99346.34;1724292;82;21445;-56
2021/07/16 01:15:25;;;;;;;3.52;2.87;;;;;;;22.75;68.57;99344.97;1719925;82;21065;-56
2021/07/16 01:17:52;;;;;;;4.15;3.75;;;;;;;22.74;68.64;99344.61;1724177;81;20939;-56
2021/07/16 01:20:29;;;;;;;3.47;3.22;;;;;;;22.74;68.70;99343.72;1728190;82;20947;-56
2021/07/16 01:22:56;;;;;;;4.17;3.92;;;;;;;22.72;68.70;99341.12;1727552;82;20925;-56
2021/07/16 01:25:25;;;;;;;5.30;4.90;;;;;;;22.70;68.71;99347.82;1722700;82;22740;-56
2021/07/16 01:27:55;;;;;;;5.28;4.83;;;;;;;22.68;68.63;99341.12;1723876;82;20902;-56
2021/07/16 01:30:25;;;;;;;3.75;3.55;;;;;;;22.62;68.65;99332.17;1725598;82;20943;-56
2021/07/16 01:32:51;;;;;;;4.65;3.08;;;;;;;22.60;68.64;99334.20;1722954;82;21018;-56
2021/07/16 01:35:18;;;;;;;2.92;2.72;;;;;;;22.56;68.62;99332.28;1720085;82;21112;-56
2021/07/16 01:37:44;;;;;;;3.95;3.35;;;;;;;22.54;68.68;99323.88;1719573;82;21240;-56
2021/07/16 01:40:16;;;;;;;3.45;3.25;;;;;;;22.51;68.61;99326.42;1730289;82;20919;-56
2021/07/16 01:42:45;;;;;;;7.72;3.45;;;;;;;22.50;68.63;99323.83;1731729;82;21088;-56
2021/07/16 01:45:14;;;;;;;7.30;4.50;;;;;;;22.47;68.65;99315.41;1729016;82;21046;-56
2021/07/16 01:47:46;;;;;;;6.37;4.37;;;;;;;22.46;68.69;99311.45;1732389;82;20934;-56
2021/07/16 01:50:12;;;;;;;4.33;3.25;;;;;;;22.43;68.78;99307.67;1730979;82;21100;-56
2021/07/16 01:52:39;;;;;;;4.37;4.08;;;;;;;22.39;68.75;99301.64;1724716;80;21078;-56
2021/07/16 01:55:06;;;;;;;3.92;3.45;;;;;;;22.38;68.85;99305.39;1725853;81;21146;-56
2021/07/16 01:57:33;;;;;;;4.62;3.85;;;;;;;22.36;69.01;99300.61;1729108;82;21129;-56
2021/07/16 01:59:59;;;;;;;2.30;2.17;;;;;;;22.34;69.07;99294.41;1731161;82;21102;-56
2021/07/16 02:02:26;;;;;;;3.55;2.70;;;;;;;22.34;68.94;99305.38;1668402;83;22171;-56
2021/07/16 02:04:52;;;;;;;3.67;3.37;;;;;;;22.34;68.95;99300.41;1670871;83;21055;-56
2021/07/16 02:07:18;;;;;;;3.17;2.67;;;;;;;22.33;68.89;99295.42;1729568;82;21070;-56
2021/07/16 02:09:46;;;;;;;4.67;4.28;;;;;;;22.32;68.96;99295.08;1725024;82;21062;-56
2021/07/16 02:12:13;;;;;;;3.10;2.90;;;;;;;22.33;69.10;99302.28;1728513;82;21149;-58
2021/07/16 02:14:40;;;;;;;7.58;3.05;;;;;;;22.32;69.17;99299.19;1729086;82;21104;-56
2021/07/16 02:17:07;;;;;;;2.22;2.12;;;;;;;22.33;69.19;99294.56;1730711;82;21100;-56
2021/07/16 02:19:35;;;;;;;4.10;2.87;;;;;;;22.33;69.19;99293.20;1727303;82;21107;-56
2021/07/16 02:22:07;;;;;;;4.00;2.90;;;;;;;22.34;69.06;99289.44;1730991;82;20976;-56
2021/07/16 02:24:34;;;;;;;3.98;3.62;;;;;;;22.35;69.02;99289.79;1729769;82;21152;-57
2021/07/16 02:27:04;;;;;;;5.08;3.00;;;;;;;22.37;69.09;99287.76;1731604;82;21146;-56
2021/07/16 02:29:32;;;;;;;6.42;3.98;;;;;;;22.38;69.19;99293.05;1729660;82;21161;-56
2021/07/16 02:31:58;;;;;;;3.87;3.55;;;;;;;22.40;69.19;99290.16;1727783;82;21085;-56
2021/07/16 02:34:24;;;;;;;2.98;2.65;;;;;;;22.41;69.00;99284.52;1731396;82;21125;-56
2021/07/16 02:36:50;;;;;;;2.62;2.40;;;;;;;22.44;68.70;99284.72;1731454;82;21952;-56
2021/07/16 02:39:17;;;;;;;3.85;2.50;;;;;;;22.45;68.57;99272.73;1729794;82;21098;-56
2021/07/16 02:41:43;;;;;;;4.50;2.40;;;;;;;22.46;68.51;99276.66;1726760;82;21051;-56
2021/07/16 02:44:09;;;;;;;3.27;2.27;;;;;;;22.47;68.44;99272.90;1730231;82;21413;-56
2021/07/16 02:46:36;;;;;;;3.65;2.10;;;;;;;22.49;68.60;99277.72;1731581;82;21152;-57
2021/07/16 02:49:02;;;;;;;2.95;2.67;;;;;;;22.51;68.63;99277.05;1730171;82;21136;-57
2021/07/16 02:51:28;;;;;;;7.67;2.92;;;;;;;22.52;68.53;99276.04;1728266;82;21101;-57
2021/07/16 02:53:55;;;;;;;4.35;3.02;;;;;;;22.53;68.46;99270.91;1727430;80;21050;-56
2021/07/16 02:56:23;;;;;;;2.83;2.62;;;;;;;22.57;68.44;99276.91;1728313;82;21062;-56
2021/07/16 02:58:51;;;;;;;5.55;2.45;;;;;;;22.60;68.06;99277.46;1730336;82;21116;-55
2021/07/16 03:01:17;;;;;;;1.87;1.65;;;;;;;22.64;67.96;99271.98;1728861;82;21120;-56
2021/07/16 03:03:44;;;;;;;5.53;1.77;;;;;;;22.69;68.03;99269.28;1728589;82;21488;-56
2021/07/16 03:06:10;;;;;;;3.05;2.47;;;;;;;22.73;68.00;99263.80;1725638;82;21548;-57
2021/07/16 03:08:37;;;;;;;5.50;2.52;;;;;;;22.78;68.18;99269.71;1730280;82;21659;-56
2021/07/16 03:11:05;;;;;;;4.90;3.12;;;;;;;22.84;68.17;99273.16;1730464;81;21097;-56
2021/07/16 03:13:31;;;;;;;18.02;2.20;;;;;;;22.88;68.19;99279.52;1727578;82;21157;-56
2021/07/16 03:15:59;;;;;;;2.92;2.40;;;;;;;22.93;68.04;99283.16;1729477;82;21156;-56
2021/07/16 03:18:27;;;;;;;4.45;2.90;;;;;;;22.95;67.74;99284.73;1727576;82;21129;-56
2021/07/16 03:20:55;;;;;;;3.42;2.27;;;;;;;23.00;67.43;99282.84;1726797;82;21088;-56
2021/07/16 03:23:21;;;;;;;6.67;2.15;;;;;;;23.05;67.32;99283.23;1727237;82;21183;-57
2021/07/16 03:25:48;;;;;;;2.27;1.87;;;;;;;23.11;66.69;99285.83;1729245;82;21050;-57
2021/07/16 03:28:14;;;;;;;3.62;1.70;;;;;;;23.17;66.11;99292.88;1728408;82;21611;-56
2021/07/16 03:30:41;;;;;;;2.85;1.92;;;;;;;23.25;66.10;99294.28;1726495;82;21552;-57
2021/07/16 03:33:07;;;;;;;2.67;2.47;;;;;;;23.31;65.67;99293.61;1727686;82;21081;-55
2021/07/16 03:35:33;;;;;;;2.62;2.35;;;;;;;23.38;65.72;99304.31;1730324;82;21136;-56
2021/07/16 03:38:00;;;;;;;2.47;2.10;;;;;;;23.45;65.42;99304.50;1721997;82;21081;-56
2021/07/16 03:40:28;;;;;;;3.90;2.55;;;;;;;23.52;65.84;99300.59;1724211;82;20977;-56
2021/07/16 03:42:56;;;;;;;2.17;1.98;;;;;;;23.57;66.15;99310.05;1723926;82;21038;-55
2021/07/16 03:45:23;;;;;;;7.12;2.08;;;;;;;23.63;66.17;99312.66;1690125;83;21015;-56
2021/07/16 03:47:49;;;;;;;2.80;1.82;;;;;;;23.70;65.17;99317.82;1664239;85;21018;-56
2021/07/16 03:50:18;;;;;;;2.10;1.87;;;;;;;23.77;64.89;99314.74;1727593;82;21414;-57
2021/07/16 03:52:44;;;;;;;6.15;2.17;;;;;;;23.84;64.69;99321.28;1724805;82;22087;-57
2021/07/16 03:55:12;;;;;;;5.20;2.12;;;;;;;23.93;64.54;99319.41;1725757;82;20899;-55
2021/07/16 03:57:46;;;;;;;9.28;2.33;;;;;;;24.00;64.14;99317.69;1723934;82;20897;-55
2021/07/16 04:00:15;;;;;;;2.27;2.17;;;;;;;24.07;63.78;99320.96;1726022;82;20914;-56
2021/07/16 04:02:43;;;;;;;4.78;2.70;;;;;;;24.16;63.62;99319.62;1725521;82;20876;-56
2021/07/16 04:05:10;;;;;;;2.52;2.33;;;;;;;24.21;63.25;99318.11;1720859;82;21394;-56
2021/07/16 04:07:44;;;;;;;2.80;2.58;;;;;;;24.28;63.11;99318.27;1727029;82;20871;-56
2021/07/16 04:10:08;;;;;;;6.67;3.25;;;;;;;24.34;63.04;99320.33;1725486;82;21085;-56
2021/07/16 04:12:35;;;;;;;4.95;3.02;;;;;;;24.39;62.91;99320.69;1702812;82;21002;-57
2021/07/16 04:15:02;;;;;;;4.15;2.87;;;;;;;24.43;62.67;99317.41;1727923;82;21066;-57
2021/07/16 04:17:30;;;;;;;2.37;2.17;;;;;;;24.49;62.79;99321.38;1721272;82;21195;-57
2021/07/16 04:19:58;;;;;;;3.22;2.20;;;;;;;24.56;62.74;99320.16;1723206;82;21060;-56
2021/07/16 04:22:25;;;;;;;3.33;2.25;;;;;;;24.63;63.13;99322.55;1720790;82;21098;-57
2021/07/16 04:24:52;;;;;;;2.72;2.47;;;;;;;24.69;63.02;99321.85;1717551;82;21023;-57
2021/07/16 04:27:18;;;;;;;3.65;2.42;;;;;;;24.77;63.30;99332.84;1671330;83;21478;-55
2021/07/16 04:29:45;;;;;;;5.22;2.72;;;;;;;24.83;62.99;99322.54;1690674;83;21668;-57
2021/07/16 04:32:12;;;;;;;6.08;3.17;;;;;;;24.89;63.02;99321.31;1688207;83;21150;-57
2021/07/16 04:34:39;;;;;;;5.37;3.62;;;;;;;24.96;62.96;99318.74;1728239;82;21087;-57
2021/07/16 04:37:07;;;;;;;6.75;3.25;;;;;;;25.02;62.71;99322.16;1723309;82;21070;-57
2021/07/16 04:39:35;;;;;;;6.17;2.72;;;;;;;25.08;62.37;99320.61;1722931;82;21697;-56
2021/07/16 04:42:02;;;;;;;8.03;3.42;;;;;;;25.15;62.17;99325.75;1732315;82;21117;-56
2021/07/16 04:44:30;;;;;;;4.20;2.72;;;;;;;25.18;61.56;99326.23;1725324;82;21508;-57
2021/07/16 04:46:56;;;;;;;4.80;2.65;;;;;;;25.22;61.35;99328.13;1733843;82;21063;-55
2021/07/16 04:49:23;;;;;;;4.75;2.58;;;;;;;25.25;61.62;99327.27;1707327;82;21498;-54
2021/07/16 04:51:50;;;;;;;4.25;2.17;;;;;;;25.29;61.22;99337.39;1726517;82;21573;-56
2021/07/16 04:54:16;;;;;;;5.20;2.50;;;;;;;25.34;60.77;99333.61;1735379;82;21183;-56
2021/07/16 04:56:43;;;;;;;4.15;2.77;;;;;;;25.41;60.64;99335.12;1728562;82;21074;-56
2021/07/16 04:59:10;;;;;;;6.45;3.20;;;;;;;25.49;60.57;99333.70;1735408;82;21157;-56
2021/07/16 05:01:37;;;;;;;4.92;2.83;;;;;;;25.56;60.75;99334.19;1732550;82;20923;-57
2021/07/16 05:04:04;;;;;;;9.98;3.72;;;;;;;25.65;60.61;99332.80;1732355;82;21029;-54
2021/07/16 05:06:30;;;;;;;10.63;3.65;;;;;;;25.72;60.73;99328.28;1732789;82;21528;-55
2021/07/16 05:08:57;;;;;;;4.45;3.70;;;;;;;25.81;60.87;99332.70;1732675;82;21979;-55
2021/07/16 05:11:23;;;;;;;6.03;3.20;;;;;;;25.88;60.43;99336.45;1737724;82;21051;-55
2021/07/16 05:13:50;;;;;;;6.33;3.20;;;;;;;25.95;60.43;99334.67;1737186;81;21109;-54
2021/07/16 05:16:16;;;;;;;7.10;3.20;;;;;;;26.02;60.19;99333.45;1727990;82;21085;-54
2021/07/16 05:18:44;;;;;;;12.75;3.37;;;;;;;26.06;59.76;99343.92;1736608;82;21091;-55
2021/07/16 05:21:12;;;;;;;5.05;2.90;;;;;;;26.12;59.53;99336.80;1729339;82;21046;-55
2021/07/16 05:23:41;;;;;;;6.25;3.50;;;;;;;26.16;59.66;99327.99;1733968;81;21623;-55
2021/07/16 05:26:07;;;;;;;11.43;3.72;;;;;;;26.20;59.21;99327.95;1730461;82;21528;-54
2021/07/16 05:28:34;;;;;;;3.25;2.95;;;;;;;26.26;59.19;99323.65;1736958;82;21467;-56
2021/07/16 05:31:01;;;;;;;4.00;3.42;;;;;;;26.30;58.92;99325.84;1734072;82;21054;-55
2021/07/16 05:33:27;;;;;;;7.85;3.10;;;;;;;26.35;58.90;99324.78;1707486;82;21058;-57
2021/07/16 05:35:53;;;;;;;7.78;3.42;;;;;;;26.40;58.70;99324.73;1737267;82;21054;-56
2021/07/16 05:38:25;;;;;;;3.50;3.20;;;;;;;26.46;58.56;99333.12;1732605;82;21611;-56
2021/07/16 05:40:48;;;;;;;3.50;2.85;;;;;;;26.51;58.65;99324.30;1724935;82;21074;-57
2021/07/16 05:43:15;;;;;;;4.42;2.45;;;;;;;26.58;59.07;99318.37;1700808;82;21175;-55
2021/07/16 05:45:41;;;;;;;4.72;2.47;;;;;;;26.62;57.80;99319.20;1702111;82;21070;-55
2021/07/16 05:48:13;;;;;;;5.90;2.20;;;;;;;26.68;57.20;99325.34;1638899;85;21202;-55
2021/07/16 05:50:40;;;;;;;6.47;3.15;;;;;;;26.72;56.66;99334.09;1701326;82;22415;-57
2021/07/16 05:53:07;;;;;;;4.45;2.98;;;;;;;26.75;56.18;99324.93;1702531;82;21122;-55
2021/07/16 05:55:34;;;;;;;3.20;2.90;;;;;;;26.79;56.39;99324.05;1699399;82;21131;-56
2021/07/16 05:58:00;;;;;;;6.25;3.05;;;;;;;26.85;56.59;99323.28;1703198;82;21133;-57
2021/07/16 06:00:28;;;;;;;5.42;3.72;;;;;;;26.92;56.96;99320.13;1702553;82;21125;-58
2021/07/16 06:02:55;;;;;;;3.85;3.20;;;;;;;26.99;57.01;99322.98;1703072;82;21113;-57
2021/07/16 06:05:21;;;;;;;4.08;3.02;;;;;;;27.07;56.99;99330.66;1701974;82;21066;-54
2021/07/16 06:07:48;;;;;;;7.37;3.33;;;;;;;27.15;56.59;99326.95;1707830;82;21187;-56
2021/07/16 06:10:14;;;;;;;4.60;2.52;;;;;;;27.22;56.32;99329.83;1700724;82;21073;-55
2021/07/16 06:12:41;;;;;;;4.12;2.25;;;;;;;27.26;55.95;99324.23;1698868;82;21103;-58
2021/07/16 06:15:08;;;;;;;4.08;3.02;;;;;;;27.31;55.34;99326.75;1705635;82;21081;-59
2021/07/16 06:17:36;;;;;;;4.20;3.52;;;;;;;27.32;54.85;99316.03;1701430;82;21344;-56
2021/07/16 06:20:05;;;;;;;5.28;3.35;;;;;;;27.35;55.00;99325.33;1704710;82;21800;-55
2021/07/16 06:22:32;;;;;;;9.98;3.05;;;;;;;27.38;55.42;99316.67;1704949;82;21057;-57
2021/07/16 06:24:59;;;;;;;4.50;2.85;;;;;;;27.46;55.53;99322.62;1671295;83;21519;-55
2021/07/16 06:27:25;;;;;;;3.47;3.17;;;;;;;27.51;54.81;99320.13;1670212;84;21319;-56
2021/07/16 06:29:51;;;;;;;6.58;3.20;;;;;;;27.57;54.51;99320.75;1671711;84;21438;-55
2021/07/16 06:32:18;;;;;;;5.75;3.95;;;;;;;27.62;54.38;99320.19;1643583;85;21496;-56
2021/07/16 06:34:45;;;;;;;6.53;3.70;;;;;;;27.66;54.41;99320.13;1651230;85;20999;-55
2021/07/16 06:37:11;;;;;;;6.40;3.62;;;;;;;27.71;54.38;99330.09;1708441;82;21046;-59
2021/07/16 06:39:39;;;;;;;7.55;3.87;;;;;;;27.75;54.09;99328.11;1706377;82;20944;-55
2021/07/16 06:42:06;;;;;;;7.40;3.02;;;;;;;27.81;54.14;99332.89;1715950;82;21019;-55
2021/07/16 06:44:32;;;;;;;6.75;3.60;;;;;;;27.87;54.01;99324.33;1728631;82;21784;-55
2021/07/16 06:46:59;;;;;;;11.97;3.83;;;;;;;27.92;53.93;99327.35;1722542;82;21783;-56
2021/07/16 06:49:28;;;;;;;7.85;3.62;;;;;;;27.97;54.05;99333.17;1726715;82;21395;-57
2021/07/16 06:51:56;;;;;;;4.78;3.05;;;;;;;28.03;54.14;99328.23;1724235;82;21374;-57
2021/07/16 06:54:26;;;;;;;5.33;4.83;;;;;;;28.10;54.24;99324.15;1720159;81;20951;-55
2021/07/16 06:56:53;;;;;;;5.80;4.45;;;;;;;28.17;53.44;99326.48;1727537;82;21433;-58
2021/07/16 06:59:20;;;;;;;5.03;3.57;;;;;;;28.20;53.52;99325.58;1723995;82;20912;-58
2021/07/16 07:01:47;;;;;;;6.30;3.90;;;;;;;28.25;53.52;99319.44;1725293;82;21500;-57
2021/07/16 07:04:13;;;;;;;7.95;3.52;;;;;;;28.32;54.07;99319.00;1722497;82;20903;-56
2021/07/16 07:06:40;;;;;;;4.15;3.85;;;;;;;28.40;53.28;99325.79;1725001;82;20982;-56
2021/07/16 07:09:07;;;;;;;7.75;3.30;;;;;;;28.46;53.08;99329.14;1723816;82;21433;-56
2021/07/16 07:11:33;;;;;;;5.12;4.05;;;;;;;28.53;52.68;99334.20;1724149;82;21058;-57
2021/07/16 07:14:01;;;;;;;4.67;4.28;;;;;;;28.60;53.11;99332.87;1721550;82;20983;-57
2021/07/16 07:16:27;;;;;;;8.20;4.83;;;;;;;28.66;52.37;99328.47;1726882;82;21442;-57
2021/07/16 07:18:53;;;;;;;5.33;4.33;;;;;;;28.73;52.08;99332.14;1721949;82;21145;-57
2021/07/16 07:21:20;;;;;;;10.05;4.67;;;;;;;28.81;52.09;99332.03;1722467;82;22264;-55
2021/07/16 07:23:46;;;;;;;5.75;4.90;;;;;;;28.86;52.03;99322.57;1722489;82;22632;-57
2021/07/16 07:26:12;;;;;;;6.47;4.87;;;;;;;28.92;51.91;99329.54;1720913;82;21050;-58
2021/07/16 07:28:38;;;;;;;11.75;4.60;;;;;;;28.99;51.61;99324.07;1723472;82;21127;-59
2021/07/16 07:31:05;;;;;;;5.55;4.58;;;;;;;29.10;52.53;99328.17;1721815;82;21062;-55
2021/07/16 07:33:32;;;;;;;5.65;4.37;;;;;;;29.18;51.50;99327.48;1722470;82;21151;-57
2021/07/16 07:35:59;;;;;;;10.35;4.67;;;;;;;29.27;51.32;99330.95;1724225;82;21107;-56
2021/07/16 07:38:26;;;;;;;5.78;5.25;;;;;;;29.35;51.65;99337.71;1720716;82;21054;-55
2021/07/16 07:40:53;;;;;;;5.20;4.83;;;;;;;29.42;51.23;99337.28;1720863;82;21090;-56
2021/07/16 07:43:20;;;;;;;9.75;5.20;;;;;;;29.47;49.66;99336.13;1722316;82;21526;-59
2021/07/16 07:45:48;;;;;;;9.25;5.15;;;;;;;29.52;49.57;99343.28;1716909;82;21508;-56
2021/07/16 07:48:14;;;;;;;13.43;5.40;;;;;;;29.58;48.77;99346.64;1723262;82;21168;-56
2021/07/16 07:50:40;;;;;;;6.42;4.12;;;;;;;29.63;48.03;99348.78;1718896;82;21045;-55
2021/07/16 07:53:07;;;;;;;6.20;4.87;;;;;;;29.67;48.34;99350.95;1722527;82;21117;-56
2021/07/16 07:55:33;;;;;;;7.47;5.55;;;;;;;29.72;47.77;99347.55;1723943;82;21070;-58
2021/07/16 07:57:59;;;;;;;10.13;6.10;;;;;;;29.77;47.77;99348.33;1724540;81;21522;-56
2021/07/16 08:00:26;;;;;;;6.20;5.62;;;;;;;29.82;48.13;99337.45;1722172;82;21364;-56
2021/07/16 08:02:53;;;;;;;6.60;5.83;;;;;;;29.89;48.82;99341.11;1723645;82;21113;-56
2021/07/16 08:05:21;;;;;;;14.50;5.72;;;;;;;29.96;48.71;99342.02;1721651;82;21081;-58
2021/07/16 08:07:47;;;;;;;5.92;5.37;;;;;;;30.04;48.64;99339.91;1662054;84;22230;-57
2021/07/16 08:10:17;;;;;;;6.62;5.42;;;;;;;30.14;48.25;99341.42;1723887;82;21147;-56
2021/07/16 08:12:43;;;;;;;9.63;6.22;;;;;;;30.22;47.68;99337.92;1723485;82;21042;-56
2021/07/16 08:15:11;;;;;;;5.12;4.72;;;;;;;30.29;46.93;99344.34;1727478;82;20915;-58
2021/07/16 08:17:38;;;;;;;8.38;5.25;;;;;;;30.34;46.76;99340.42;1725562;82;20983;-58
2021/07/16 08:20:08;;;;;;;8.63;4.95;;;;;;;30.41;46.21;99343.20;1723996;82;21333;-59
2021/07/16 08:22:37;;;;;;;5.65;5.15;;;;;;;30.49;46.71;99334.67;1722562;82;21158;-56
2021/07/16 08:25:05;;;;;;;6.22;5.83;;;;;;;30.60;46.85;99336.86;1724583;82;20998;-56
2021/07/16 08:27:31;;;;;;;11.73;6.85;;;;;;;30.69;45.86;99337.50;1724273;82;21113;-58
2021/07/16 08:29:57;;;;;;;6.75;6.15;;;;;;;30.72;45.81;99340.69;1722721;82;21051;-54
2021/07/16 08:32:24;;;;;;;10.40;5.95;;;;;;;30.74;46.01;99345.50;1721673;82;21095;-54
2021/07/16 08:34:51;;;;;;;11.38;5.95;;;;;;;30.78;45.86;99341.25;1721765;82;21228;-56
2021/07/16 08:37:17;;;;;;;7.00;6.40;;;;;;;30.84;45.79;99338.99;1725386;82;21474;-57
2021/07/16 08:39:44;;;;;;;12.00;6.75;;;;;;;30.88;45.25;99339.40;1721508;82;21108;-57
2021/07/16 08:42:10;;;;;;;10.82;7.08;;;;;;;30.94;45.67;99341.88;1722521;82;21058;-57
2021/07/16 08:44:37;;;;;;;9.18;6.60;;;;;;;31.00;45.76;99343.78;1650452;82;21042;-58
2021/07/16 08:47:04;;;;;;;8.18;7.25;;;;;;;31.05;45.23;99330.94;1728193;82;21168;-55
2021/07/16 08:49:31;;;;;;;7.80;6.62;;;;;;;31.09;45.12;99342.00;1729624;82;21499;-55
2021/07/16 08:54:19;;;;;;;13.20;7.00;;;;;;;31.14;45.56;99333.84;1864034;75;21951;-56
2021/07/16 08:56:47;;;;;;;12.58;7.90;;;;;;;31.13;45.63;99336.88;1839057;77;21025;-55
2021/07/16 08:59:14;;;;;;;8.50;6.78;;;;;;;31.13;45.30;99334.09;1834376;77;21137;-54
2021/07/16 09:01:46;;;;;;;8.40;7.67;;;;;;;31.12;45.23;99336.02;1846020;77;20923;-56
2021/07/16 09:04:13;;;;;;;10.60;6.97;;;;;;;31.13;44.82;99335.48;1842995;77;20913;-55
2021/07/16 09:06:51;;;;;;;9.15;8.25;;;;;;;31.14;44.88;99332.99;1838116;77;20953;-58
2021/07/16 09:09:23;;;;;;;8.23;7.58;;;;;;;31.19;44.59;99334.08;1840499;75;20995;-56
2021/07/16 09:11:54;;;;;;;7.78;7.10;;;;;;;31.26;44.88;99329.03;1842958;77;21019;-56
2021/07/16 09:14:30;;;;;;;13.32;8.10;;;;;;;31.34;44.61;99330.19;1772701;78;21069;-55
2021/07/16 09:17:11;;;;;;;12.23;8.50;;;;;;;31.42;44.72;99328.02;1807887;78;20929;-56
2021/07/16 09:19:47;;;;;;;8.05;7.33;;;;;;;31.47;45.36;99328.23;1805528;78;20874;-56
2021/07/16 09:22:19;;;;;;;9.15;8.10;;;;;;;31.55;45.29;99323.83;1809716;78;20918;-54
2021/07/16 09:24:58;;;;;;;12.10;8.78;;;;;;;31.66;45.96;99322.30;1775608;79;21100;-56
2021/07/16 09:27:42;;;;;;;8.83;7.85;;;;;;;31.72;44.54;99321.44;1805020;78;20926;-56
2021/07/16 09:30:23;;;;;;;10.30;7.97;;;;;;;31.74;44.60;99317.88;1805452;78;20867;-55
2021/07/16 09:32:55;;;;;;;8.40;7.55;;;;;;;31.78;44.30;99327.50;1766737;79;21442;-54
2021/07/16 09:35:34;;;;;;;9.38;8.78;;;;;;;31.82;44.44;99325.11;1782764;79;20957;-55
2021/07/16 09:38:05;;;;;;;10.82;10.05;;;;;;;31.82;45.03;99336.24;1802965;78;21929;-56
2021/07/16 09:40:39;;;;;;;9.98;8.78;;;;;;;31.84;44.11;99330.78;1771588;79;21683;-56
2021/07/16 09:43:15;;;;;;;11.83;9.30;;;;;;;31.88;43.87;99326.50;1768365;79;20996;-53
2021/07/16 09:46:01;;;;;;;10.82;9.08;;;;;;;31.94;44.04;99323.36;1776817;78;20990;-54
2021/07/16 09:48:35;;;;;;;10.58;9.60;;;;;;;31.93;44.63;99329.99;1787483;78;20971;-53
2021/07/16 09:51:27;;;;;;;10.48;9.38;;;;;;;31.90;44.58;99323.50;1781213;78;21087;-55
2021/07/16 09:54:01;;;;;;;11.00;9.83;;;;;;;31.91;44.85;99317.69;1774578;79;21003;-55
2021/07/16 09:56:29;;;;;;;11.50;10.37;;;;;;;31.90;44.82;99320.15;1780310;78;20896;-55
2021/07/16 09:59:08;;;;;;;10.13;9.13;;;;;;;31.94;44.39;99319.18;1780547;78;21020;-55
2021/07/16 10:01:37;;;;;;;10.08;9.38;;;;;;;32.00;44.17;99321.06;1782811;78;21977;-56
2021/07/16 10:04:16;;;;;;;16.20;10.38;;;;;;;32.02;44.33;99330.06;1781835;78;21085;-55
2021/07/16 10:06:38;;;;;;;9.83;8.85;;;;;;;32.02;43.99;99330.06;1778552;78;21126;-55
2021/07/16 10:09:05;;;;;;;10.48;9.50;;;;;;;32.03;44.17;99323.42;1780064;78;21028;-54
2021/07/16 10:11:33;;;;;;;9.60;9.10;;;;;;;32.04;43.62;99325.66;1777440;78;22159;-56
2021/07/16 10:13:59;;;;;;;10.13;9.08;;;;;;;32.04;44.42;99320.09;1780303;78;21049;-54
2021/07/16 10:16:26;;;;;;;8.63;8.03;;;;;;;32.06;44.31;99318.81;1749221;80;21098;-55
2021/07/16 10:18:53;;;;;;;8.95;8.13;;;;;;;32.10;44.66;99324.23;1746359;80;21087;-53
2021/07/16 10:21:22;;;;;;;10.38;9.50;;;;;;;32.12;44.69;99314.27;1741473;80;21774;-56
2021/07/16 10:23:50;;;;;;;10.78;9.83;;;;;;;32.10;45.11;99315.87;1744847;80;20953;-54
2021/07/16 10:26:19;;;;;;;12.80;9.25;;;;;;;32.04;44.81;99318.17;1752021;79;21507;-56
2021/07/16 10:28:45;;;;;;;11.33;9.83;;;;;;;32.01;44.67;99323.31;1753179;78;21790;-57
2021/07/16 10:31:33;;;;;;;12.20;11.00;;;;;;;31.96;45.06;99312.86;1779971;78;21052;-57
2021/07/16 10:34:21;;;;;;;10.30;9.60;;;;;;;31.92;44.93;99311.05;1754561;79;21983;-58
2021/07/16 10:36:49;;;;;;;10.48;9.83;;;;;;;31.93;44.85;99313.30;1780165;78;21492;-57
2021/07/16 10:39:23;;;;;;;13.20;10.43;;;;;;;31.92;44.91;99306.87;1778636;78;21049;-58
2021/07/16 10:41:49;;;;;;;14.83;10.65;;;;;;;31.98;44.88;99307.94;1756449;78;21705;-59
2021/07/16 10:44:38;;;;;;;11.50;10.45;;;;;;;32.00;44.40;99311.33;1781109;78;21028;-58
2021/07/16 10:47:33;;;;;;;11.38;10.18;;;;;;;32.03;44.40;99308.11;1758098;79;21080;-56
2021/07/16 10:50:01;;;;;;;13.65;10.88;;;;;;;32.10;43.98;99301.95;1754122;79;20989;-54
2021/07/16 10:52:50;;;;;;;12.70;9.43;;;;;;;32.18;44.45;99286.41;1761219;79;21072;-54
2021/07/16 10:57:14;;;;;;;10.48;9.65;;;;;;;32.32;45.21;99287.19;1789699;78;22811;-55
2021/07/16 10:59:48;;;;;;;9.28;8.68;;;;;;;32.28;43.91;99287.31;1770350;79;22475;-55
2021/07/16 11:02:44;;;;;;;8.38;7.87;;;;;;;32.28;43.78;99295.13;1771814;79;22237;-54
2021/07/16 11:05:35;;;;;;;9.40;8.45;;;;;;;32.29;43.66;99288.48;1775779;79;20993;-56
2021/07/16 11:08:07;;;;;;;9.48;8.88;;;;;;;32.35;43.69;99288.65;1778465;79;20992;-57
2021/07/16 11:10:47;;;;;;;10.55;9.33;;;;;;;32.45;44.34;99281.50;1775381;79;21017;-54
2021/07/16 11:13:57;;;;;;;11.18;10.05;;;;;;;32.53;43.90;99273.41;1771374;78;21013;-57
2021/07/16 11:16:36;;;;;;;10.05;9.28;;;;;;;32.55;44.43;99279.07;1773494;78;21169;-56
2021/07/16 11:19:11;;;;;;;9.80;9.15;;;;;;;32.54;44.46;99290.44;1770207;78;21534;-56
2021/07/16 11:21:49;;;;;;;10.45;9.55;;;;;;;32.49;44.79;99291.13;1773107;78;20966;-56
2021/07/16 11:24:22;;;;;;;10.53;8.75;;;;;;;32.42;45.18;99288.91;1767564;78;21073;-55
2021/07/16 11:26:57;;;;;;;10.15;9.05;;;;;;;32.33;44.61;99278.58;1711400;81;21533;-56
2021/07/16 11:29:38;;;;;;;10.70;9.90;;;;;;;32.21;44.50;99273.44;1722085;81;21216;-56
2021/07/16 11:32:12;;;;;;;9.95;9.28;;;;;;;32.13;44.90;99271.43;1711126;81;21519;-57
2021/07/16 11:34:49;;;;;;;13.85;9.00;;;;;;;32.11;44.97;99278.61;1714252;81;20927;-56
2021/07/16 11:37:40;;;;;;;9.28;8.40;;;;;;;32.14;45.27;99274.00;1713045;82;21085;-54
2021/07/16 11:40:22;;;;;;;8.58;8.08;;;;;;;32.20;45.16;99271.73;1709253;83;21041;-56
2021/07/16 11:42:52;;;;;;;9.27;8.57;;;;;;;32.23;45.12;99271.83;1718549;81;21158;-56
2021/07/16 11:45:26;;;;;;;12.05;8.10;;;;;;;32.21;45.04;99268.41;1721680;81;21374;-54